Time,TemperatureF,DewpointF,PressureIn,WindDirection,WindDirectionDegrees,WindSpeedMPH,WindSpeedGustMPH,Humidity,HourlyPrecipIn,Conditions,Clouds,dailyrainin,SoftwareType,DateUTC
2013-01-18 00:02:00,14.0,7.2,30.41,WNW,282,0.0,0.0,74,0.00,,,0.00,Wunderground v.1.15,2013-01-18 06:02:00,
2013-01-18 00:08:00,14.0,7.2,30.41,WNW,282,0.0,0.0,74,0.00,,,0.00,Wunderground v.1.15,2013-01-18 06:08:00,
2013-01-18 00:13:00,13.8,7.0,30.41,WNW,282,0.0,0.0,74,0.00,,,0.00,Wunderground v.1.15,2013-01-18 06:13:00,
2013-01-18 00:18:00,13.8,7.3,30.41,WNW,282,0.0,0.0,75,0.00,,,0.00,Wunderground v.1.15,2013-01-18 06:18:00,
2013-01-18 00:23:00,13.8,7.3,30.41,WNW,282,0.0,0.0,75,0.00,,,0.00,Wunderground v.1.15,2013-01-18 06:23:00,
2013-01-18 00:28:00,13.6,7.1,30.41,WNW,282,0.0,0.0,75,0.00,,,0.00,Wunderground v.1.15,2013-01-18 06:28:00,
2013-01-18 00:34:00,13.6,7.1,30.41,WNW,282,0.0,0.0,75,0.00,,,0.00,Wunderground v.1.15,2013-01-18 06:34:00,
2013-01-18 00:39:00,13.5,7.0,30.41,North,11,0.0,0.0,75,0.00,,,0.00,Wunderground v.1.15,2013-01-18 06:39:00,
2013-01-18 00:45:00,13.5,7.0,30.41,North,11,0.0,0.0,75,0.00,,,0.00,Wunderground v.1.15,2013-01-18 06:45:00,
2013-01-18 00:51:00,13.5,7.3,30.41,North,11,0.0,0.0,76,0.00,,,0.00,Wunderground v.1.15,2013-01-18 06:51:00,
2013-01-18 00:56:00,13.3,7.1,30.41,North,11,0.0,0.0,76,0.00,,,0.00,Wunderground v.1.15,2013-01-18 06:56:00,
2013-01-18 01:02:00,13.3,7.1,30.41,North,11,0.0,0.0,76,0.00,,,0.00,Wunderground v.1.15,2013-01-18 07:02:00,
2013-01-18 01:08:00,13.3,7.1,30.41,North,11,0.0,0.0,76,0.00,,,0.00,Wunderground v.1.15,2013-01-18 07:08:00,
2013-01-18 01:15:00,13.5,7.6,30.41,North,11,0.0,0.0,77,0.00,,,0.00,Wunderground v.1.15,2013-01-18 07:15:00,
2013-01-18 01:20:00,13.5,7.6,30.41,North,11,0.0,0.0,77,0.00,,,0.00,Wunderground v.1.15,2013-01-18 07:20:00,
2013-01-18 01:25:00,13.6,8.0,30.41,North,11,0.0,0.0,78,0.00,,,0.00,Wunderground v.1.15,2013-01-18 07:25:00,
2013-01-18 01:31:00,13.6,8.0,30.41,North,11,0.0,0.0,78,0.00,,,0.00,Wunderground v.1.15,2013-01-18 07:31:00,
2013-01-18 01:36:00,13.8,8.2,30.41,North,11,0.0,0.0,78,0.00,,,0.00,Wunderground v.1.15,2013-01-18 07:36:00,
2013-01-18 01:41:00,13.8,8.2,30.41,North,11,0.0,0.0,78,0.00,,,0.00,Wunderground v.1.15,2013-01-18 07:41:00,
2013-01-18 01:46:00,14.1,8.5,30.43,North,11,0.0,0.0,78,0.00,,,0.00,Wunderground v.1.15,2013-01-18 07:46:00,
2013-01-18 01:52:00,14.3,8.7,30.43,North,11,0.0,0.0,78,0.00,,,0.00,Wunderground v.1.15,2013-01-18 07:52:00,
2013-01-18 01:58:00,14.4,9.1,30.43,North,11,0.0,0.0,79,0.00,,,0.00,Wunderground v.1.15,2013-01-18 07:58:00,
2013-01-18 02:03:00,14.6,9.3,30.43,North,11,0.0,0.0,79,0.00,,,0.00,Wunderground v.1.15,2013-01-18 08:03:00,
2013-01-18 02:09:00,14.8,9.5,30.43,North,11,0.0,0.0,79,0.00,,,0.00,Wunderground v.1.15,2013-01-18 08:09:00,
2013-01-18 02:14:00,14.9,9.6,30.43,North,11,0.0,0.0,79,0.00,,,0.00,Wunderground v.1.15,2013-01-18 08:14:00,
2013-01-18 02:24:00,15.2,9.9,30.43,North,11,0.0,0.0,79,0.00,,,0.00,Wunderground v.1.15,2013-01-18 08:24:00,
2013-01-18 02:29:00,15.4,10.1,30.42,North,11,0.0,0.0,79,0.00,,,0.00,Wunderground v.1.15,2013-01-18 08:29:00,
2013-01-18 02:34:00,15.4,10.1,30.42,North,11,0.0,0.0,79,0.00,,,0.00,Wunderground v.1.15,2013-01-18 08:34:00,
2013-01-18 02:40:00,15.6,10.2,30.42,North,11,0.0,0.0,79,0.00,,,0.00,Wunderground v.1.15,2013-01-18 08:40:00,
2013-01-18 02:46:00,15.7,10.3,30.41,North,11,0.0,0.0,79,0.00,,,0.00,Wunderground v.1.15,2013-01-18 08:46:00,
2013-01-18 02:52:00,15.9,10.3,30.41,NE,55,0.0,0.0,78,0.00,,,0.00,Wunderground v.1.15,2013-01-18 08:52:00,
2013-01-18 02:57:00,15.9,10.3,30.41,ENE,62,0.0,0.0,78,0.00,,,0.00,Wunderground v.1.15,2013-01-18 08:57:00,
2013-01-18 03:03:00,16.1,10.2,30.41,ENE,62,0.0,0.0,77,0.00,,,0.00,Wunderground v.1.15,2013-01-18 09:03:00,
2013-01-18 03:09:00,16.1,10.2,30.41,ENE,62,0.0,0.0,77,0.00,,,0.00,Wunderground v.1.15,2013-01-18 09:09:00,
2013-01-18 03:14:00,16.1,10.2,30.40,ENE,62,0.0,0.0,77,0.00,,,0.00,Wunderground v.1.15,2013-01-18 09:14:00,
2013-01-18 03:19:00,16.2,10.0,30.40,ENE,62,0.0,0.0,76,0.00,,,0.00,Wunderground v.1.15,2013-01-18 09:19:00,
2013-01-18 03:25:00,16.2,10.0,30.40,ENE,62,0.0,0.0,76,0.00,,,0.00,Wunderground v.1.15,2013-01-18 09:25:00,
2013-01-18 03:30:00,16.2,9.7,30.40,ENE,62,0.0,0.0,75,0.00,,,0.00,Wunderground v.1.15,2013-01-18 09:30:00,
2013-01-18 03:36:00,16.4,9.9,30.40,ENE,62,0.0,0.0,75,0.00,,,0.00,Wunderground v.1.15,2013-01-18 09:36:00,
2013-01-18 03:41:00,16.4,9.9,30.40,ENE,62,0.0,0.0,75,0.00,,,0.00,Wunderground v.1.15,2013-01-18 09:41:00,
2013-01-18 03:46:00,16.4,9.9,30.39,ESE,102,0.0,0.0,75,0.00,,,0.00,Wunderground v.1.15,2013-01-18 09:46:00,
2013-01-18 03:52:00,16.5,9.7,30.39,East,92,0.0,0.0,74,0.00,,,0.00,Wunderground v.1.15,2013-01-18 09:52:00,
2013-01-18 03:57:00,16.5,9.7,30.39,ENE,66,0.0,0.0,74,0.00,,,0.00,Wunderground v.1.15,2013-01-18 09:57:00,
2013-01-18 04:02:00,16.5,9.7,30.36,East,80,0.0,0.0,74,0.00,,,0.00,Wunderground v.1.15,2013-01-18 10:02:00,
2013-01-18 04:08:00,16.5,9.7,30.36,East,80,0.0,0.0,74,0.00,,,0.00,Wunderground v.1.15,2013-01-18 10:08:00,
2013-01-18 04:13:00,16.5,9.7,30.36,East,80,0.0,0.0,74,0.00,,,0.00,Wunderground v.1.15,2013-01-18 10:13:00,
2013-01-18 04:19:00,16.5,10.0,30.36,East,80,0.0,0.0,75,0.00,,,0.00,Wunderground v.1.15,2013-01-18 10:19:00,
2013-01-18 04:25:00,16.7,10.1,30.36,East,80,0.0,0.0,75,0.00,,,0.00,Wunderground v.1.15,2013-01-18 10:25:00,
2013-01-18 04:31:00,16.7,10.1,30.35,East,80,0.0,0.0,75,0.00,,,0.00,Wunderground v.1.15,2013-01-18 10:31:00,
2013-01-18 04:37:00,16.7,10.1,30.35,ESE,103,0.0,0.0,75,0.00,,,0.00,Wunderground v.1.15,2013-01-18 10:37:00,
2013-01-18 04:43:00,16.9,10.3,30.35,East,85,0.0,0.0,75,0.00,,,0.00,Wunderground v.1.15,2013-01-18 10:43:00,
2013-01-18 04:48:00,16.9,10.6,30.34,East,86,0.0,0.0,76,0.00,,,0.00,Wunderground v.1.15,2013-01-18 10:48:00,
2013-01-18 04:54:00,16.9,10.6,30.34,East,100,0.0,0.0,76,0.00,,,0.00,Wunderground v.1.15,2013-01-18 10:54:00,
2013-01-18 05:00:00,16.9,10.6,30.34,NNE,32,0.0,0.0,76,0.00,,,0.00,Wunderground v.1.15,2013-01-18 11:00:00,
2013-01-18 05:06:00,16.9,10.6,30.34,SSE,148,0.0,0.0,76,0.00,,,0.00,Wunderground v.1.15,2013-01-18 11:06:00,
2013-01-18 05:11:00,16.9,10.6,30.34,SSE,155,0.0,0.0,76,0.00,,,0.00,Wunderground v.1.15,2013-01-18 11:11:00,
2013-01-18 05:16:00,17.0,11.0,30.34,SE,144,0.0,0.0,77,0.00,,,0.00,Wunderground v.1.15,2013-01-18 11:16:00,
2013-01-18 05:22:00,17.0,11.0,30.34,SSE,147,0.0,0.0,77,0.00,,,0.00,Wunderground v.1.15,2013-01-18 11:22:00,
2013-01-18 05:27:00,17.0,11.0,30.34,SE,128,0.0,2.0,77,0.00,,,0.00,Wunderground v.1.15,2013-01-18 11:27:00,
2013-01-18 05:32:00,17.2,11.2,30.34,SE,143,0.0,0.0,77,0.00,,,0.00,Wunderground v.1.15,2013-01-18 11:32:00,
2013-01-18 05:37:00,17.2,11.2,30.34,SSE,165,0.0,0.0,77,0.00,,,0.00,Wunderground v.1.15,2013-01-18 11:37:00,
2013-01-18 05:43:00,17.3,11.3,30.34,SE,137,1.0,2.0,77,0.00,,,0.00,Wunderground v.1.15,2013-01-18 11:43:00,
2013-01-18 05:48:00,17.3,11.3,30.32,ESE,123,1.0,2.0,77,0.00,,,0.00,Wunderground v.1.15,2013-01-18 11:48:00,
2013-01-18 05:54:00,17.5,11.5,30.32,SE,131,1.0,1.0,77,0.00,,,0.00,Wunderground v.1.15,2013-01-18 11:54:00,
2013-01-18 06:00:00,17.7,11.7,30.31,SE,133,0.0,0.0,77,0.00,,,0.00,Wunderground v.1.15,2013-01-18 12:00:00,
2013-01-18 06:06:00,17.8,12.1,30.31,SSE,147,0.0,0.0,78,0.00,,,0.00,Wunderground v.1.15,2013-01-18 12:06:00,
2013-01-18 06:11:00,18.0,12.0,30.31,SSE,162,0.0,0.0,77,0.00,,,0.00,Wunderground v.1.15,2013-01-18 12:11:00,
2013-01-18 06:16:00,18.0,12.0,30.31,SSE,165,0.0,2.0,77,0.00,,,0.00,Wunderground v.1.15,2013-01-18 12:16:00,
2013-01-18 06:22:00,18.1,12.4,30.31,SSE,157,0.0,2.0,78,0.00,,,0.00,Wunderground v.1.15,2013-01-18 12:22:00,
2013-01-18 06:27:00,18.3,12.6,30.31,ESE,114,1.0,2.0,78,0.00,,,0.00,Wunderground v.1.15,2013-01-18 12:27:00,
2013-01-18 06:32:00,18.3,12.6,30.31,SSE,157,1.0,1.0,78,0.00,,,0.00,Wunderground v.1.15,2013-01-18 12:32:00,
2013-01-18 06:38:00,18.4,12.7,30.31,SSE,157,1.0,3.0,78,0.00,,,0.00,Wunderground v.1.15,2013-01-18 12:38:00,
2013-01-18 06:43:00,18.6,12.9,30.31,SE,137,1.0,1.0,78,0.00,,,0.00,Wunderground v.1.15,2013-01-18 12:43:00,
2013-01-18 06:49:00,18.8,13.1,30.30,SSE,150,1.0,4.0,78,0.00,,,0.00,Wunderground v.1.15,2013-01-18 12:49:00,
2013-01-18 06:54:00,18.9,13.2,30.30,SE,131,1.0,10.0,78,0.00,,,0.00,Wunderground v.1.15,2013-01-18 12:54:00,
2013-01-18 06:59:00,19.1,13.4,30.30,SSE,160,1.0,10.0,78,0.00,,,0.00,Wunderground v.1.15,2013-01-18 12:59:00,
2013-01-18 07:05:00,19.2,13.5,30.30,SSE,165,1.0,4.0,78,0.00,,,0.00,Wunderground v.1.15,2013-01-18 13:05:00,
2013-01-18 07:11:00,19.2,13.8,30.30,SSE,168,2.0,2.0,79,0.00,,,0.00,Wunderground v.1.15,2013-01-18 13:11:00,
2013-01-18 07:16:00,19.5,14.0,30.29,South,175,2.0,4.0,79,0.00,,,0.00,Wunderground v.1.15,2013-01-18 13:16:00,
2013-01-18 07:22:00,19.7,14.2,30.29,SE,145,2.0,6.0,79,0.00,,,0.00,Wunderground v.1.15,2013-01-18 13:22:00,
2013-01-18 07:27:00,19.9,14.4,30.29,SE,141,3.0,6.0,79,0.00,,,0.00,Wunderground v.1.15,2013-01-18 13:27:00,
2013-01-18 07:32:00,20.2,14.7,30.27,SE,140,4.0,5.0,79,0.00,,,0.00,Wunderground v.1.15,2013-01-18 13:32:00,
2013-01-18 07:38:00,20.3,14.8,30.27,SE,134,3.0,5.0,79,0.00,,,0.00,Wunderground v.1.15,2013-01-18 13:38:00,
2013-01-18 07:44:00,20.5,15.0,30.26,SSE,160,3.0,5.0,79,0.00,,,0.00,Wunderground v.1.15,2013-01-18 13:44:00,
2013-01-18 07:50:00,20.8,15.3,30.26,SE,145,3.0,3.0,79,0.00,,,0.00,Wunderground v.1.15,2013-01-18 13:50:00,
2013-01-18 07:56:00,21.0,15.5,30.26,SE,138,3.0,3.0,79,0.00,,,0.00,Wunderground v.1.15,2013-01-18 13:56:00,
2013-01-18 08:01:00,21.1,15.6,30.25,SE,131,3.0,3.0,79,0.00,,,0.00,Wunderground v.1.15,2013-01-18 14:01:00,
2013-01-18 08:07:00,21.4,15.9,30.25,South,191,2.0,3.0,79,0.00,,,0.00,Wunderground v.1.15,2013-01-18 14:07:00,
2013-01-18 08:13:00,21.8,16.3,30.25,SE,140,1.0,6.0,79,0.00,,,0.00,Wunderground v.1.15,2013-01-18 14:13:00,
2013-01-18 08:18:00,21.9,16.4,30.25,SSE,148,2.0,6.0,79,0.00,,,0.00,Wunderground v.1.15,2013-01-18 14:18:00,
2013-01-18 08:23:00,22.2,16.4,30.25,SSE,150,2.0,6.0,78,0.00,,,0.00,Wunderground v.1.15,2013-01-18 14:23:00,
2013-01-18 08:29:00,22.5,16.7,30.23,SE,143,2.0,7.0,78,0.00,,,0.00,Wunderground v.1.15,2013-01-18 14:29:00,
2013-01-18 08:35:00,23.0,17.2,30.23,South,175,2.0,7.0,78,0.00,,,0.00,Wunderground v.1.15,2013-01-18 14:35:00,
2013-01-18 08:41:00,23.3,17.5,30.23,South,189,2.0,2.0,78,0.00,,,0.00,Wunderground v.1.15,2013-01-18 14:41:00,
2013-01-18 08:46:00,23.6,17.7,30.22,ESE,121,2.0,2.0,78,0.00,,,0.00,Wunderground v.1.15,2013-01-18 14:46:00,
2013-01-18 08:52:00,24.1,18.2,30.22,SSE,151,3.0,10.0,78,0.00,,,0.00,Wunderground v.1.15,2013-01-18 14:52:00,
2013-01-18 08:57:00,24.4,18.2,30.22,SE,137,2.0,10.0,77,0.00,,,0.00,Wunderground v.1.15,2013-01-18 14:57:00,
2013-01-18 09:02:00,24.5,18.3,30.21,SSE,151,3.0,6.0,77,0.00,,,0.00,Wunderground v.1.15,2013-01-18 15:02:00,
2013-01-18 09:08:00,24.8,18.3,30.21,South,178,3.0,8.0,76,0.00,,,0.00,Wunderground v.1.15,2013-01-18 15:08:00,
2013-01-18 09:13:00,25.1,18.6,30.21,SE,144,2.0,6.0,76,0.00,,,0.00,Wunderground v.1.15,2013-01-18 15:13:00,
2013-01-18 09:18:00,25.3,18.8,30.20,SE,126,3.0,6.0,76,0.00,,,0.00,Wunderground v.1.15,2013-01-18 15:18:00,
2013-01-18 09:24:00,25.7,19.2,30.20,SSE,158,3.0,7.0,76,0.00,,,0.00,Wunderground v.1.15,2013-01-18 15:24:00,
2013-01-18 09:29:00,26.0,19.5,30.18,ESE,123,4.0,7.0,76,0.00,,,0.00,Wunderground v.1.15,2013-01-18 15:29:00,
2013-01-18 09:35:00,26.3,19.5,30.18,SE,131,5.0,11.0,75,0.00,,,0.00,Wunderground v.1.15,2013-01-18 15:35:00,
2013-01-18 09:40:00,26.6,19.7,30.18,SE,143,5.0,5.0,75,0.00,,,0.00,Wunderground v.1.15,2013-01-18 15:40:00,
2013-01-18 09:46:00,26.9,20.0,30.17,ESE,113,4.0,5.0,75,0.00,,,0.00,Wunderground v.1.15,2013-01-18 15:46:00,
2013-01-18 09:51:00,27.3,20.4,30.17,SE,133,4.0,4.0,75,0.00,,,0.00,Wunderground v.1.15,2013-01-18 15:51:00,
2013-01-18 09:57:00,27.9,21.0,30.17,SSW,192,4.0,6.0,75,0.00,,,0.00,Wunderground v.1.15,2013-01-18 15:57:00,
2013-01-18 10:04:00,28.5,21.6,30.17,South,174,4.0,5.0,75,0.00,,,0.00,Wunderground v.1.15,2013-01-18 16:04:00,
2013-01-18 10:09:00,29.0,22.1,30.17,South,178,3.0,8.0,75,0.00,,,0.00,Wunderground v.1.15,2013-01-18 16:09:00,
2013-01-18 10:14:00,29.5,22.2,30.15,SE,127,3.0,16.0,74,0.00,,,0.00,Wunderground v.1.15,2013-01-18 16:14:00,
2013-01-18 10:20:00,30.3,23.0,30.15,SSW,198,3.0,6.0,74,0.00,,,0.00,Wunderground v.1.15,2013-01-18 16:20:00,
2013-01-18 10:25:00,30.9,23.3,30.15,SSE,165,4.0,7.0,73,0.00,,,0.00,Wunderground v.1.15,2013-01-18 16:25:00,
2013-01-18 10:30:00,31.3,23.6,30.13,South,174,4.0,7.0,73,0.00,,,0.00,Wunderground v.1.15,2013-01-18 16:30:00,
2013-01-18 10:36:00,31.9,23.9,30.13,SSW,192,5.0,24.0,72,0.00,,,0.00,Wunderground v.1.15,2013-01-18 16:36:00,
2013-01-18 10:41:00,32.4,24.0,30.13,SW,226,6.0,6.0,71,0.00,,,0.00,Wunderground v.1.15,2013-01-18 16:41:00,
2013-01-18 10:47:00,32.7,24.0,30.11,SW,234,6.0,19.0,70,0.00,,,0.00,Wunderground v.1.15,2013-01-18 16:47:00,
2013-01-18 10:53:00,32.9,23.8,30.11,SSW,199,5.0,10.0,69,0.00,,,0.00,Wunderground v.1.15,2013-01-18 16:53:00,
2013-01-18 10:58:00,33.2,23.8,30.11,SE,141,5.0,10.0,68,0.00,,,0.00,Wunderground v.1.15,2013-01-18 16:58:00,
2013-01-18 11:03:00,33.4,24.0,30.09,SSE,157,6.0,14.0,68,0.00,,,0.00,Wunderground v.1.15,2013-01-18 17:03:00,
2013-01-18 11:09:00,33.8,24.0,30.09,SSW,203,6.0,14.0,67,0.00,,,0.00,Wunderground v.1.15,2013-01-18 17:09:00,
2013-01-18 11:15:00,34.3,24.5,30.08,SSW,196,5.0,6.0,67,0.00,,,0.00,Wunderground v.1.15,2013-01-18 17:15:00,
2013-01-18 11:20:00,34.4,24.6,30.08,SSW,206,4.0,8.0,67,0.00,,,0.00,Wunderground v.1.15,2013-01-18 17:20:00,
2013-01-18 11:25:00,34.4,24.2,30.08,South,178,4.0,17.0,66,0.00,,,0.00,Wunderground v.1.15,2013-01-18 17:25:00,
2013-01-18 11:30:00,34.6,24.4,30.06,South,188,5.0,17.0,66,0.00,,,0.00,Wunderground v.1.15,2013-01-18 17:30:00,
2013-01-18 11:36:00,34.7,24.5,30.06,SSW,202,7.0,18.0,66,0.00,,,0.00,Wunderground v.1.15,2013-01-18 17:36:00,
2013-01-18 11:42:00,34.7,24.5,30.06,South,182,5.0,5.0,66,0.00,,,0.00,Wunderground v.1.15,2013-01-18 17:42:00,
2013-01-18 11:48:00,34.7,24.9,30.04,SSW,205,5.0,13.0,67,0.00,,,0.00,Wunderground v.1.15,2013-01-18 17:48:00,
2013-01-18 11:53:00,34.9,25.0,30.04,SSW,199,7.0,7.0,67,0.00,,,0.00,Wunderground v.1.15,2013-01-18 17:53:00,
2013-01-18 11:58:00,35.6,25.7,30.02,South,186,5.0,7.0,67,0.00,,,0.00,Wunderground v.1.15,2013-01-18 17:58:00,
2013-01-18 12:04:00,36.2,25.9,30.02,WSW,244,4.0,5.0,66,0.00,,,0.00,Wunderground v.1.15,2013-01-18 18:04:00,
2013-01-18 12:10:00,36.5,25.8,30.02,SW,220,6.0,6.0,65,0.00,,,0.00,Wunderground v.1.15,2013-01-18 18:10:00,
2013-01-18 12:15:00,36.9,26.2,30.00,SW,222,6.0,6.0,65,0.00,,,0.00,Wunderground v.1.15,2013-01-18 18:15:00,
2013-01-18 12:20:00,37.2,26.5,30.00,SW,222,4.0,4.0,65,0.00,,,0.00,Wunderground v.1.15,2013-01-18 18:20:00,
2013-01-18 12:26:00,37.3,26.2,30.00,WSW,237,5.0,13.0,64,0.00,,,0.00,Wunderground v.1.15,2013-01-18 18:26:00,
2013-01-18 12:31:00,37.5,26.4,29.99,SE,141,6.0,7.0,64,0.00,,,0.00,Wunderground v.1.15,2013-01-18 18:31:00,
2013-01-18 12:37:00,37.6,26.5,29.99,SW,230,5.0,13.0,64,0.00,,,0.00,Wunderground v.1.15,2013-01-18 18:37:00,
2013-01-18 12:42:00,37.8,26.7,29.99,SSE,168,4.0,4.0,64,0.00,,,0.00,Wunderground v.1.15,2013-01-18 18:42:00,
2013-01-18 12:47:00,37.8,26.7,29.98,SSW,210,4.0,6.0,64,0.00,,,0.00,Wunderground v.1.15,2013-01-18 18:47:00,
2013-01-18 12:53:00,37.6,26.5,29.98,SE,144,4.0,8.0,64,0.00,,,0.00,Wunderground v.1.15,2013-01-18 18:53:00,
2013-01-18 12:59:00,37.6,26.9,29.96,SSW,193,3.0,8.0,65,0.00,,,0.00,Wunderground v.1.15,2013-01-18 18:59:00,
2013-01-18 13:05:00,37.5,27.2,29.96,SSW,202,4.0,6.0,66,0.00,,,0.00,Wunderground v.1.15,2013-01-18 19:05:00,
2013-01-18 13:10:00,37.3,27.0,29.96,SW,222,5.0,5.0,66,0.00,,,0.00,Wunderground v.1.15,2013-01-18 19:10:00,
2013-01-18 13:16:00,37.3,27.3,29.95,SW,236,5.0,7.0,67,0.00,,,0.00,Wunderground v.1.15,2013-01-18 19:16:00,
2013-01-18 13:21:00,37.6,27.6,29.95,SSW,202,4.0,5.0,67,0.00,,,0.00,Wunderground v.1.15,2013-01-18 19:21:00,
2013-01-18 13:27:00,38.0,28.0,29.95,SSW,205,3.0,6.0,67,0.00,,,0.00,Wunderground v.1.15,2013-01-18 19:27:00,
2013-01-18 13:32:00,38.3,28.3,29.94,South,184,4.0,5.0,67,0.00,,,0.00,Wunderground v.1.15,2013-01-18 19:32:00,
2013-01-18 13:39:00,38.6,28.2,29.94,SSW,208,5.0,10.0,66,0.00,,,0.00,Wunderground v.1.15,2013-01-18 19:39:00,
2013-01-18 14:01:00,38.6,28.2,29.92,SSW,200,5.0,7.0,66,0.00,,,0.00,Wunderground v.1.15,2013-01-18 20:01:00,
2013-01-18 14:12:00,38.9,28.5,29.92,SSW,196,6.0,7.0,66,0.00,,,0.00,Wunderground v.1.15,2013-01-18 20:12:00,
2013-01-18 14:17:00,38.9,28.5,29.91,West,265,5.0,10.0,66,0.00,,,0.00,Wunderground v.1.15,2013-01-18 20:17:00,
2013-01-18 14:24:00,39.1,28.7,29.91,SSW,205,4.0,6.0,66,0.00,,,0.00,Wunderground v.1.15,2013-01-18 20:24:00,
2013-01-18 14:31:00,39.3,28.9,29.91,SSW,195,5.0,5.0,66,0.00,,,0.00,Wunderground v.1.15,2013-01-18 20:31:00,
2013-01-18 14:37:00,39.3,28.9,29.91,SE,131,4.0,11.0,66,0.00,,,0.00,Wunderground v.1.15,2013-01-18 20:37:00,
2013-01-18 14:45:00,39.5,29.1,29.90,South,176,5.0,19.0,66,0.00,,,0.00,Wunderground v.1.15,2013-01-18 20:45:00,
2013-01-18 14:51:00,39.6,29.2,29.90,ESE,114,5.0,8.0,66,0.00,,,0.00,Wunderground v.1.15,2013-01-18 20:51:00,
2013-01-18 15:01:00,40.2,29.4,29.89,SW,226,5.0,5.0,65,0.00,,,0.00,Wunderground v.1.15,2013-01-18 21:01:00,
2013-01-18 15:06:00,40.3,29.5,29.89,SW,216,5.0,8.0,65,0.00,,,0.00,Wunderground v.1.15,2013-01-18 21:06:00,
2013-01-18 15:13:00,40.3,29.5,29.89,SSW,200,5.0,7.0,65,0.00,,,0.00,Wunderground v.1.15,2013-01-18 21:13:00,
2013-01-18 15:19:00,40.5,29.7,29.88,South,169,4.0,7.0,65,0.00,,,0.00,Wunderground v.1.15,2013-01-18 21:19:00,
2013-01-18 15:27:00,40.5,29.7,29.88,South,175,3.0,13.0,65,0.00,,,0.00,Wunderground v.1.15,2013-01-18 21:27:00,
2013-01-18 15:36:00,40.2,29.7,29.88,SW,233,4.0,10.0,66,0.00,,,0.00,Wunderground v.1.15,2013-01-18 21:36:00,
2013-01-18 15:41:00,40.1,30.0,29.88,SSE,165,5.0,6.0,67,0.00,,,0.00,Wunderground v.1.15,2013-01-18 21:41:00,
2013-01-18 15:47:00,39.8,29.7,29.86,SW,215,4.0,11.0,67,0.00,,,0.00,Wunderground v.1.15,2013-01-18 21:47:00,
2013-01-18 15:53:00,39.6,29.5,29.86,SW,226,4.0,12.0,67,0.00,,,0.00,Wunderground v.1.15,2013-01-18 21:53:00,
2013-01-18 15:58:00,39.6,29.9,29.87,SW,223,5.0,18.0,68,0.00,,,0.00,Wunderground v.1.15,2013-01-18 21:58:00,
2013-01-18 16:03:00,39.5,29.8,29.87,SSW,206,5.0,11.0,68,0.00,,,0.00,Wunderground v.1.15,2013-01-18 22:03:00,
2013-01-18 16:10:00,39.5,30.2,29.87,SSE,161,5.0,5.0,69,0.00,,,0.00,Wunderground v.1.15,2013-01-18 22:10:00,
2013-01-18 16:15:00,39.5,30.2,29.87,ESE,116,4.0,6.0,69,0.00,,,0.00,Wunderground v.1.15,2013-01-18 22:15:00,
2013-01-18 16:20:00,39.3,30.0,29.87,SSW,209,4.0,8.0,69,0.00,,,0.00,Wunderground v.1.15,2013-01-18 22:20:00,
2013-01-18 16:25:00,39.3,30.0,29.87,SW,215,4.0,8.0,69,0.00,,,0.00,Wunderground v.1.15,2013-01-18 22:25:00,
2013-01-18 16:30:00,39.3,30.0,29.88,SSW,213,4.0,4.0,69,0.00,,,0.00,Wunderground v.1.15,2013-01-18 22:30:00,
2013-01-18 16:38:00,39.2,30.2,29.88,SW,216,3.0,8.0,70,0.00,,,0.00,Wunderground v.1.15,2013-01-18 22:38:00,
2013-01-18 16:44:00,39.2,30.2,29.87,SSW,195,3.0,5.0,70,0.00,,,0.00,Wunderground v.1.15,2013-01-18 22:44:00,
2013-01-18 16:49:00,39.1,30.1,29.87,SW,220,3.0,5.0,70,0.00,,,0.00,Wunderground v.1.15,2013-01-18 22:49:00,
2013-01-18 16:55:00,39.1,30.1,29.87,WSW,247,3.0,5.0,70,0.00,,,0.00,Wunderground v.1.15,2013-01-18 22:55:00,
2013-01-18 17:00:00,38.9,29.9,29.88,SW,232,3.0,3.0,70,0.00,,,0.00,Wunderground v.1.15,2013-01-18 23:00:00,
2013-01-18 17:06:00,38.9,30.3,29.88,SW,226,3.0,7.0,71,0.00,,,0.00,Wunderground v.1.15,2013-01-18 23:06:00,
2013-01-18 17:12:00,38.9,30.3,29.88,WSW,253,3.0,6.0,71,0.00,,,0.00,Wunderground v.1.15,2013-01-18 23:12:00,
2013-01-18 17:17:00,38.8,30.2,29.87,SW,230,3.0,7.0,71,0.00,,,0.00,Wunderground v.1.15,2013-01-18 23:17:00,
2013-01-18 17:23:00,38.8,30.2,29.87,SW,226,2.0,4.0,71,0.00,,,0.00,Wunderground v.1.15,2013-01-18 23:23:00,
2013-01-18 17:29:00,38.6,30.0,29.87,SW,222,1.0,8.0,71,0.00,,,0.00,Wunderground v.1.15,2013-01-18 23:29:00,
2013-01-18 17:34:00,38.5,30.3,29.87,SW,223,2.0,3.0,72,0.00,,,0.00,Wunderground v.1.15,2013-01-18 23:34:00,
2013-01-18 17:40:00,38.3,30.1,29.87,WSW,246,1.0,6.0,72,0.00,,,0.00,Wunderground v.1.15,2013-01-18 23:40:00,
2013-01-18 17:46:00,38.3,30.1,29.86,SSW,198,2.0,6.0,72,0.00,,,0.00,Wunderground v.1.15,2013-01-18 23:46:00,
2013-01-18 17:52:00,38.2,30.3,29.86,SW,224,1.0,3.0,73,0.00,,,0.00,Wunderground v.1.15,2013-01-18 23:52:00,
2013-01-18 17:57:00,38.2,30.3,29.86,SW,229,2.0,3.0,73,0.00,,,0.00,Wunderground v.1.15,2013-01-18 23:57:00,
2013-01-18 18:03:00,38.0,30.1,29.87,WSW,247,2.0,3.0,73,0.00,,,0.00,Wunderground v.1.15,2013-01-19 00:03:00,
2013-01-18 18:09:00,38.0,30.1,29.87,SW,232,2.0,6.0,73,0.00,,,0.00,Wunderground v.1.15,2013-01-19 00:09:00,
2013-01-18 18:15:00,38.0,30.1,29.86,SW,219,2.0,2.0,73,0.00,,,0.00,Wunderground v.1.15,2013-01-19 00:15:00,
2013-01-18 18:20:00,37.9,30.4,29.86,SSW,192,1.0,2.0,74,0.00,,,0.00,Wunderground v.1.15,2013-01-19 00:20:00,
2013-01-18 18:26:00,37.9,30.4,29.86,SW,222,1.0,2.0,74,0.00,,,0.00,Wunderground v.1.15,2013-01-19 00:26:00,
2013-01-18 18:31:00,37.8,30.3,29.86,SW,234,1.0,1.0,74,0.00,,,0.00,Wunderground v.1.15,2013-01-19 00:31:00,
2013-01-18 18:36:00,37.8,30.3,29.86,WSW,253,2.0,2.0,74,0.00,,,0.00,Wunderground v.1.15,2013-01-19 00:36:00,
2013-01-18 18:42:00,37.8,30.3,29.86,SW,216,2.0,3.0,74,0.00,,,0.00,Wunderground v.1.15,2013-01-19 00:42:00,
2013-01-18 18:48:00,37.8,30.6,29.87,SW,224,2.0,5.0,75,0.00,,,0.00,Wunderground v.1.15,2013-01-19 00:48:00,
2013-01-18 18:53:00,37.8,30.6,29.87,SSE,157,1.0,2.0,75,0.00,,,0.00,Wunderground v.1.15,2013-01-19 00:53:00,
2013-01-18 18:59:00,37.8,30.6,29.86,SW,219,1.0,5.0,75,0.00,,,0.00,Wunderground v.1.15,2013-01-19 00:59:00,
2013-01-18 19:04:00,37.8,30.6,29.86,SW,216,1.0,4.0,75,0.00,,,0.00,Wunderground v.1.15,2013-01-19 01:04:00,
2013-01-18 19:10:00,37.8,30.6,29.86,SSW,199,2.0,2.0,75,0.00,,,0.00,Wunderground v.1.15,2013-01-19 01:10:00,
2013-01-18 19:15:00,37.9,30.7,29.86,SW,215,2.0,6.0,75,0.00,,,0.00,Wunderground v.1.15,2013-01-19 01:15:00,
2013-01-18 19:21:00,37.8,30.6,29.86,SW,223,1.0,2.0,75,0.00,,,0.00,Wunderground v.1.15,2013-01-19 01:21:00,
2013-01-18 19:26:00,37.8,30.6,29.86,SW,236,1.0,2.0,75,0.00,,,0.00,Wunderground v.1.15,2013-01-19 01:26:00,
2013-01-18 19:32:00,37.8,30.6,29.86,SSW,198,1.0,9.0,75,0.00,,,0.00,Wunderground v.1.15,2013-01-19 01:32:00,
2013-01-18 19:38:00,37.9,30.7,29.86,WSW,241,2.0,9.0,75,0.00,,,0.00,Wunderground v.1.15,2013-01-19 01:38:00,
2013-01-18 19:43:00,37.9,30.7,29.86,SW,215,2.0,5.0,75,0.00,,,0.00,Wunderground v.1.15,2013-01-19 01:43:00,
2013-01-18 19:48:00,37.9,30.7,29.86,South,184,2.0,5.0,75,0.00,,,0.00,Wunderground v.1.15,2013-01-19 01:48:00,
2013-01-18 19:54:00,37.8,30.6,29.86,SW,216,1.0,3.0,75,0.00,,,0.00,Wunderground v.1.15,2013-01-19 01:54:00,
2013-01-18 20:01:00,37.8,30.6,29.86,SSW,196,2.0,2.0,75,0.00,,,0.00,Wunderground v.1.15,2013-01-19 02:01:00,
2013-01-18 20:06:00,37.8,30.6,29.86,SSW,210,2.0,2.0,75,0.00,,,0.00,Wunderground v.1.15,2013-01-19 02:06:00,
2013-01-18 20:12:00,37.8,30.6,29.86,SW,234,1.0,1.0,75,0.00,,,0.00,Wunderground v.1.15,2013-01-19 02:12:00,
2013-01-18 20:17:00,37.6,30.4,29.85,South,189,1.0,9.0,75,0.00,,,0.00,Wunderground v.1.15,2013-01-19 02:17:00,
2013-01-18 20:23:00,37.6,30.7,29.85,SSW,212,1.0,3.0,76,0.00,,,0.00,Wunderground v.1.15,2013-01-19 02:23:00,
2013-01-18 20:28:00,37.5,30.6,29.85,SW,217,1.0,3.0,76,0.00,,,0.00,Wunderground v.1.15,2013-01-19 02:28:00,
2013-01-18 20:34:00,37.3,30.4,29.85,SW,233,1.0,7.0,76,0.00,,,0.00,Wunderground v.1.15,2013-01-19 02:34:00,
2013-01-18 20:39:00,37.2,30.3,29.85,SW,222,2.0,7.0,76,0.00,,,0.00,Wunderground v.1.15,2013-01-19 02:39:00,
2013-01-18 20:44:00,37.2,30.3,29.85,SSW,212,1.0,2.0,76,0.00,,,0.00,Wunderground v.1.15,2013-01-19 02:44:00,
2013-01-18 20:50:00,37.0,30.1,29.85,SSW,198,2.0,2.0,76,0.00,,,0.00,Wunderground v.1.15,2013-01-19 02:50:00,
2013-01-18 20:56:00,37.0,30.5,29.85,SW,215,3.0,5.0,77,0.00,,,0.00,Wunderground v.1.15,2013-01-19 02:56:00,
2013-01-18 21:01:00,36.9,30.4,29.85,SW,220,3.0,5.0,77,0.00,,,0.00,Wunderground v.1.15,2013-01-19 03:01:00,
2013-01-18 21:06:00,36.9,30.4,29.85,SSW,206,3.0,6.0,77,0.00,,,0.00,Wunderground v.1.15,2013-01-19 03:06:00,
2013-01-18 21:12:00,36.9,30.4,29.85,SW,233,3.0,3.0,77,0.00,,,0.00,Wunderground v.1.15,2013-01-19 03:12:00,
2013-01-18 21:17:00,36.9,30.4,29.84,SSW,206,4.0,11.0,77,0.00,,,0.00,Wunderground v.1.15,2013-01-19 03:17:00,
2013-01-18 21:23:00,36.9,30.4,29.84,SSW,208,3.0,7.0,77,0.00,,,0.00,Wunderground v.1.15,2013-01-19 03:23:00,
2013-01-18 21:28:00,37.0,30.5,29.84,SW,229,3.0,11.0,77,0.00,,,0.00,Wunderground v.1.15,2013-01-19 03:28:00,
2013-01-18 21:34:00,37.0,30.5,29.84,SW,222,2.0,3.0,77,0.00,,,0.00,Wunderground v.1.15,2013-01-19 03:34:00,
2013-01-18 21:39:00,37.0,30.5,29.84,SSW,205,2.0,3.0,77,0.00,,,0.00,Wunderground v.1.15,2013-01-19 03:39:00,
2013-01-18 21:45:00,36.9,30.4,29.83,SSW,200,2.0,6.0,77,0.00,,,0.00,Wunderground v.1.15,2013-01-19 03:45:00,
2013-01-18 21:50:00,36.9,30.4,29.83,WSW,247,2.0,7.0,77,0.00,,,0.00,Wunderground v.1.15,2013-01-19 03:50:00,
2013-01-18 21:55:00,37.0,30.5,29.83,SSW,202,3.0,7.0,77,0.00,,,0.00,Wunderground v.1.15,2013-01-19 03:55:00,
2013-01-18 22:00:00,37.2,30.7,29.83,SW,230,4.0,4.0,77,0.00,,,0.00,Wunderground v.1.15,2013-01-19 04:00:00,
2013-01-18 22:07:00,37.5,30.9,29.83,WSW,239,5.0,8.0,77,0.00,,,0.00,Wunderground v.1.15,2013-01-19 04:07:00,
2013-01-18 22:12:00,37.8,30.6,29.83,SSW,205,6.0,6.0,75,0.00,,,0.00,Wunderground v.1.15,2013-01-19 04:12:00,
2013-01-18 22:17:00,38.0,30.8,29.83,WSW,246,5.0,9.0,75,0.00,,,0.00,Wunderground v.1.15,2013-01-19 04:17:00,
2013-01-18 22:23:00,38.5,30.9,29.83,SW,224,6.0,17.0,74,0.00,,,0.00,Wunderground v.1.15,2013-01-19 04:23:00,
2013-01-18 22:28:00,38.8,30.9,29.83,WSW,240,6.0,17.0,73,0.00,,,0.00,Wunderground v.1.15,2013-01-19 04:28:00,
2013-01-18 22:33:00,38.9,30.6,29.82,SSW,203,5.0,8.0,72,0.00,,,0.00,Wunderground v.1.15,2013-01-19 04:33:00,
2013-01-18 22:38:00,38.9,30.6,29.82,West,261,5.0,8.0,72,0.00,,,0.00,Wunderground v.1.15,2013-01-19 04:38:00,
2013-01-18 22:44:00,39.1,30.8,29.82,SW,223,6.0,6.0,72,0.00,,,0.00,Wunderground v.1.15,2013-01-19 04:44:00,
2013-01-18 22:50:00,39.1,30.8,29.82,SW,226,5.0,11.0,72,0.00,,,0.00,Wunderground v.1.15,2013-01-19 04:50:00,
2013-01-18 22:55:00,39.1,30.5,29.82,WSW,239,6.0,11.0,71,0.00,,,0.00,Wunderground v.1.15,2013-01-19 04:55:00,
2013-01-18 23:04:00,39.1,30.5,29.82,West,271,5.0,8.0,71,0.00,,,0.00,Wunderground v.1.15,2013-01-19 05:04:00,
2013-01-18 23:05:00,39.1,30.5,29.82,SW,236,5.0,8.0,71,0.00,,,0.00,Wunderground v.1.15,2013-01-19 05:05:00,
2013-01-18 23:08:00,39.1,30.5,29.82,SSW,210,4.0,8.0,71,0.00,,,0.00,Wunderground v.1.15,2013-01-19 05:08:00,
2013-01-18 23:09:00,39.1,30.5,29.82,West,272,5.0,8.0,71,0.00,,,0.00,Wunderground v.1.15,2013-01-19 05:09:00,
2013-01-18 23:14:00,38.9,30.3,29.82,WSW,248,5.0,6.0,71,0.00,,,0.00,Wunderground v.1.15,2013-01-19 05:14:00,
2013-01-18 23:19:00,38.9,30.3,29.82,SSW,196,5.0,8.0,71,0.00,,,0.00,Wunderground v.1.15,2013-01-19 05:19:00,
2013-01-18 23:24:00,38.9,30.3,29.82,WSW,257,5.0,6.0,71,0.00,,,0.00,Wunderground v.1.15,2013-01-19 05:24:00,
2013-01-18 23:30:00,38.9,30.3,29.82,WSW,239,5.0,5.0,71,0.00,,,0.00,Wunderground v.1.15,2013-01-19 05:30:00,
2013-01-18 23:35:00,38.8,30.2,29.82,SW,234,4.0,5.0,71,0.00,,,0.00,Wunderground v.1.15,2013-01-19 05:35:00,
2013-01-18 23:41:00,38.8,30.2,29.82,WSW,243,3.0,3.0,71,0.00,,,0.00,Wunderground v.1.15,2013-01-19 05:41:00,
2013-01-18 23:46:00,38.6,30.4,29.82,WSW,256,3.0,3.0,72,0.00,,,0.00,Wunderground v.1.15,2013-01-19 05:46:00,
2013-01-18 23:52:00,38.5,30.3,29.82,WSW,243,3.0,5.0,72,0.00,,,0.00,Wunderground v.1.15,2013-01-19 05:52:00,
2013-01-18 23:57:00,38.3,30.1,29.82,WSW,248,4.0,6.0,72,0.00,,,0.00,Wunderground v.1.15,2013-01-19 05:57:00,